Time;durP1;ratioP1;P1;durP2;ratioP2;P2;SDS_P1;SDS_P2;PMS_P1;PMS_P2;Temp;Humidity;BMP_temperature;BMP_pressure;BME280_temperature;BME280_humidity;BME280_pressure;Samples;Min_cycle;Max_cycle;Signal;HPM_P1;HPM_P2
2023/07/10 00:01:18;;;;;;;9.63;6.68;;;;;;;25.39;46.20;95953.03;5041156;28;20680;-75
2023/07/10 00:03:44;;;;;;;9.25;5.57;;;;;;;25.36;46.30;95947.38;5028988;28;20190;-74
2023/07/10 00:06:11;;;;;;;8.50;5.85;;;;;;;25.31;47.03;95947.25;5046656;28;20256;-73
2023/07/10 00:08:36;;;;;;;8.20;5.75;;;;;;;25.30;47.06;95948.28;5041994;28;20196;-74
2023/07/10 00:11:02;;;;;;;7.80;6.20;;;;;;;25.29;47.51;95950.13;5032363;28;20266;-74
2023/07/10 00:13:28;;;;;;;10.27;6.38;;;;;;;25.20;48.00;95950.69;5035506;28;20216;-74
2023/07/10 00:15:54;;;;;;;12.10;6.72;;;;;;;25.20;48.40;95950.69;5043441;28;20691;-73
2023/07/10 00:18:21;;;;;;;6.82;6.13;;;;;;;25.18;49.02;95960.72;5031307;28;20182;-73
2023/07/10 00:20:47;;;;;;;9.98;6.57;;;;;;;25.20;49.76;95956.81;5039507;28;20184;-73
2023/07/10 00:23:17;;;;;;;9.05;6.55;;;;;;;25.20;49.25;95956.81;5047245;28;20185;-74
2023/07/10 00:25:42;;;;;;;9.45;6.63;;;;;;;25.09;50.12;95953.13;5043686;28;20221;-75
2023/07/10 00:28:17;;;;;;;9.18;5.93;;;;;;;25.06;50.17;95939.47;5036528;28;20230;-74
2023/07/10 00:30:44;;;;;;;9.00;6.18;;;;;;;25.02;50.21;95940.94;5030906;28;20189;-74
2023/07/10 00:33:10;;;;;;;10.88;6.03;;;;;;;24.98;50.40;95927.28;5036993;28;20197;-73
2023/07/10 00:35:36;;;;;;;8.65;6.40;;;;;;;25.00;50.47;95935.03;5044052;28;20285;-74
2023/07/10 00:38:06;;;;;;;10.68;6.25;;;;;;;24.96;50.62;95929.38;5045788;28;20269;-73
2023/07/10 00:40:34;;;;;;;7.88;6.28;;;;;;;24.89;50.61;95920.69;5038512;28;20567;-74
2023/07/10 00:43:05;;;;;;;11.82;6.93;;;;;;;24.81;50.71;95929.78;5027796;28;20181;-74
2023/07/10 00:45:30;;;;;;;8.23;6.63;;;;;;;24.81;50.90;95936.94;5025207;28;20293;-74
2023/07/10 00:48:12;;;;;;;10.13;6.25;;;;;;;24.79;50.95;95937.19;5043329;28;20285;-74
2023/07/10 00:50:45;;;;;;;11.13;6.47;;;;;;;24.72;51.46;95943.63;5043756;28;20189;-74
2023/07/10 00:53:27;;;;;;;12.10;6.68;;;;;;;24.69;51.34;95955.50;5039467;28;20582;-74
2023/07/10 00:55:54;;;;;;;7.32;6.15;;;;;;;24.69;51.22;95962.66;5045960;28;20201;-74
2023/07/10 00:58:37;;;;;;;9.00;6.43;;;;;;;24.67;51.33;95962.09;5038695;28;20182;-74
2023/07/10 01:01:14;;;;;;;9.50;6.10;;;;;;;24.58;51.71;95966.91;5033360;28;20299;-74
2023/07/10 01:03:41;;;;;;;8.02;5.85;;;;;;;24.61;51.37;95970.94;5031678;28;20550;-74
2023/07/10 01:06:22;;;;;;;10.23;5.88;;;;;;;24.53;51.42;95980.03;5039458;28;20309;-73
2023/07/10 01:08:59;;;;;;;8.65;6.03;;;;;;;24.52;51.34;95983.72;5046696;28;20232;-74
2023/07/10 01:11:24;;;;;;;7.63;6.05;;;;;;;24.52;51.58;95994.34;5042037;28;20647;-74
2023/07/10 01:13:51;;;;;;;10.55;6.47;;;;;;;24.47;51.60;96000.34;5032748;28;20210;-74
2023/07/10 01:16:17;;;;;;;12.50;6.10;;;;;;;24.42;52.11;96002.03;5032376;28;20206;-75
2023/07/10 01:18:43;;;;;;;10.60;6.05;;;;;;;24.39;51.82;96003.31;5039288;28;20656;-74
2023/07/10 01:21:32;;;;;;;8.00;5.97;;;;;;;24.39;52.04;95986.56;5046285;28;20197;-74
2023/07/10 01:24:04;;;;;;;11.98;6.20;;;;;;;24.38;51.20;95992.88;5036663;28;20202;-74
2023/07/10 01:26:30;;;;;;;11.45;5.60;;;;;;;24.33;51.58;95988.25;5045673;28;20229;-75
2023/07/10 01:28:57;;;;;;;6.72;5.88;;;;;;;24.32;51.73;95997.25;5045852;28;20196;-75
2023/07/10 01:31:24;;;;;;;11.52;5.70;;;;;;;24.29;51.79;95992.34;5042227;28;20290;-73
2023/07/10 01:33:53;;;;;;;8.93;5.70;;;;;;;24.33;51.24;96001.53;5033813;28;20183;-74
2023/07/10 01:36:22;;;;;;;11.50;5.55;;;;;;;24.34;51.52;95992.53;5037316;28;20617;-74
2023/07/10 01:39:13;;;;;;;7.53;5.25;;;;;;;24.32;51.18;95996.44;5021798;28;20182;-75
2023/07/10 01:41:43;;;;;;;9.50;5.40;;;;;;;24.34;51.37;96000.50;5047295;28;20281;-74
2023/07/10 01:44:27;;;;;;;12.82;6.07;;;;;;;24.34;51.24;96003.16;5032458;28;20186;-74
2023/07/10 01:46:53;;;;;;;8.45;5.97;;;;;;;24.34;51.06;96000.50;5049172;28;20675;-75
2023/07/10 01:49:21;;;;;;;7.55;5.80;;;;;;;24.39;50.70;96003.31;5045441;28;20201;-74
2023/07/10 01:51:47;;;;;;;8.07;5.63;;;;;;;24.42;50.67;95999.38;5047062;28;20189;-74
2023/07/10 01:54:16;;;;;;;10.32;6.25;;;;;;;24.44;50.34;95987.50;5033673;28;20190;-75
2023/07/10 01:56:42;;;;;;;10.50;5.85;;;;;;;24.43;50.58;95983.22;5041197;28;20276;-74
2023/07/10 01:59:07;;;;;;;8.68;5.63;;;;;;;24.44;50.42;95971.56;5035265;28;20231;-74
2023/07/10 02:01:33;;;;;;;7.15;5.68;;;;;;;24.48;49.92;95980.72;5037528;28;20182;-74
2023/07/10 02:03:58;;;;;;;8.55;5.43;;;;;;;24.47;49.90;95975.63;5042853;28;20217;-75
2023/07/10 02:06:23;;;;;;;11.25;5.78;;;;;;;24.47;50.17;95971.16;5049134;28;20209;-74
2023/07/10 02:08:49;;;;;;;10.27;6.45;;;;;;;24.44;49.87;95957.50;5045246;28;20173;-73
2023/07/10 02:11:14;;;;;;;8.35;5.53;;;;;;;24.47;49.68;95949.91;5036824;28;20178;-74
2023/07/10 02:13:40;;;;;;;9.18;5.72;;;;;;;24.44;50.03;95950.34;5033049;28;20182;-74
2023/07/10 02:16:05;;;;;;;10.05;5.43;;;;;;;24.45;50.45;95946.66;5042212;28;20571;-74
2023/07/10 02:18:31;;;;;;;11.45;6.13;;;;;;;24.48;49.97;95953.38;5017422;28;20197;-74
2023/07/10 02:20:56;;;;;;;8.15;5.70;;;;;;;24.53;50.18;95962.25;5037214;28;20182;-74
2023/07/10 02:23:22;;;;;;;8.68;5.78;;;;;;;24.53;49.81;95978.19;5044037;28;20217;-74
2023/07/10 02:25:47;;;;;;;6.68;5.90;;;;;;;24.58;50.25;95974.88;5048527;28;20213;-73
2023/07/10 02:28:13;;;;;;;15.27;6.53;;;;;;;24.62;50.42;95977.88;5043541;28;20629;-74
2023/07/10 02:30:38;;;;;;;8.90;5.70;;;;;;;24.62;50.31;95981.34;5036678;28;20190;-74
2023/07/10 02:33:04;;;;;;;13.57;6.15;;;;;;;24.57;50.78;95990.00;5033987;28;20193;-74
2023/07/10 02:35:30;;;;;;;11.27;5.97;;;;;;;24.65;50.32;95994.19;5040683;28;20229;-73
2023/07/10 02:37:55;;;;;;;8.15;6.07;;;;;;;24.62;50.41;95993.81;5033838;28;20178;-74
2023/07/10 02:40:20;;;;;;;10.38;6.13;;;;;;;24.67;50.15;95988.66;5046046;28;20189;-74
2023/07/10 02:42:45;;;;;;;7.50;5.72;;;;;;;24.80;50.42;95988.44;5037469;28;20208;-74
2023/07/10 02:45:13;;;;;;;9.05;5.40;;;;;;;24.74;51.27;95981.41;5032561;28;20178;-74
2023/07/10 02:47:38;;;;;;;10.18;6.07;;;;;;;24.76;51.43;95977.47;5049712;28;20615;-74
2023/07/10 02:50:03;;;;;;;10.15;5.93;;;;;;;24.72;51.33;95955.06;5046543;28;20231;-74
2023/07/10 02:52:29;;;;;;;8.13;5.88;;;;;;;24.69;50.95;95936.94;5049487;28;20219;-75
2023/07/10 02:54:54;;;;;;;9.60;6.35;;;;;;;24.57;51.44;95938.75;5040041;28;20212;-74
2023/07/10 02:57:19;;;;;;;10.05;5.82;;;;;;;24.54;51.97;95942.63;5032606;28;20183;-74
2023/07/10 02:59:45;;;;;;;9.18;5.57;;;;;;;24.57;51.54;95946.72;5037024;28;20194;-74
2023/07/10 03:02:10;;;;;;;6.55;5.00;;;;;;;24.59;51.19;95944.63;5045638;28;20182;-74
2023/07/10 03:04:35;;;;;;;8.93;5.07;;;;;;;24.61;51.11;95947.88;5047869;28;20194;-74
2023/07/10 03:07:01;;;;;;;6.78;6.07;;;;;;;24.45;51.44;95956.44;5042269;28;20332;-74
2023/07/10 03:09:26;;;;;;;7.55;5.63;;;;;;;24.40;52.01;95991.66;5033640;28;20632;-74
2023/07/10 03:11:51;;;;;;;8.23;5.50;;;;;;;24.12;52.79;96028.47;5034374;28;20196;-74
2023/07/10 03:14:16;;;;;;;9.52;5.90;;;;;;;24.05;53.25;96027.75;5048470;28;20186;-74
2023/07/10 03:16:42;;;;;;;10.02;6.05;;;;;;;23.99;53.39;96027.56;5048170;28;20209;-73
2023/07/10 03:19:07;;;;;;;9.48;5.57;;;;;;;23.94;53.84;96031.91;5043324;28;20210;-74
2023/07/10 03:21:32;;;;;;;9.27;5.93;;;;;;;24.02;53.34;96028.97;5035563;28;20190;-74
2023/07/10 03:24:01;;;;;;;12.10;5.38;;;;;;;24.01;53.65;96030.81;5032013;28;20187;-74
2023/07/10 03:26:26;;;;;;;10.73;5.80;;;;;;;24.13;53.08;96025.63;5039249;28;20224;-74
2023/07/10 03:29:21;;;;;;;9.20;5.03;;;;;;;24.25;52.57;96029.13;5048240;28;20217;-74
2023/07/10 03:31:46;;;;;;;8.05;5.95;;;;;;;24.34;52.59;96026.22;4990561;28;20195;-74
2023/07/10 03:34:12;;;;;;;6.75;5.55;;;;;;;24.43;52.40;96028.34;4994670;28;20248;-74
2023/07/10 03:36:37;;;;;;;6.28;5.30;;;;;;;24.47;51.96;96023.41;4975395;28;20643;-74
2023/07/10 03:39:03;;;;;;;8.23;5.80;;;;;;;24.46;51.77;96019.13;4982042;28;20761;-74
2023/07/10 03:41:28;;;;;;;7.90;5.97;;;;;;;24.49;51.62;96035.44;4988980;28;20210;-74
2023/07/10 03:43:53;;;;;;;9.23;5.40;;;;;;;24.60;51.58;96054.31;5003987;28;20274;-74
2023/07/10 03:46:19;;;;;;;8.40;5.68;;;;;;;24.66;51.28;96056.88;4980473;28;20249;-73
2023/07/10 03:48:44;;;;;;;7.60;5.55;;;;;;;24.71;51.32;96058.84;4974572;28;20196;-74
2023/07/10 03:51:09;;;;;;;6.30;5.28;;;;;;;24.72;50.83;96055.97;4995988;28;20278;-75
2023/07/10 03:53:35;;;;;;;11.13;5.63;;;;;;;24.85;51.34;96042.53;5002418;28;20664;-74
2023/07/10 03:56:00;;;;;;;6.70;5.05;;;;;;;24.90;51.12;96033.88;4989846;28;20235;-74
2023/07/10 03:58:28;;;;;;;9.15;4.82;;;;;;;25.14;50.07;96038.25;4998986;28;20183;-74
2023/07/10 04:00:55;;;;;;;6.68;5.32;;;;;;;25.19;50.37;96024.31;4991654;28;20564;-74
2023/07/10 04:03:22;;;;;;;8.05;4.90;;;;;;;25.26;50.06;96030.31;4977424;28;20615;-74
2023/07/10 04:05:52;;;;;;;8.68;5.40;;;;;;;25.43;49.50;96028.59;4980247;28;20277;-74
2023/07/10 04:08:19;;;;;;;6.57;4.93;;;;;;;25.66;48.76;96024.38;5004501;28;20271;-74
2023/07/10 04:10:52;;;;;;;5.75;5.15;;;;;;;26.31;47.08;96026.88;5036643;28;20227;-75
2023/07/10 04:13:18;;;;;;;7.80;5.20;;;;;;;26.72;45.71;96033.88;5048626;28;20272;-74
2023/07/10 04:16:14;;;;;;;8.77;5.47;;;;;;;26.95;45.20;96040.19;5046033;28;20292;-73
2023/07/10 04:18:41;;;;;;;7.25;5.22;;;;;;;26.82;45.91;96044.72;5053340;28;20232;-74
2023/07/10 04:21:10;;;;;;;9.50;5.82;;;;;;;26.53;46.28;96051.88;5031640;28;20245;-75
2023/07/10 04:23:35;;;;;;;8.52;5.20;;;;;;;26.25;47.06;96057.94;5040263;28;20188;-75
2023/07/10 04:26:00;;;;;;;9.48;5.18;;;;;;;26.13;47.06;96051.78;5033154;28;20222;-74
2023/07/10 04:28:26;;;;;;;5.78;5.00;;;;;;;25.98;47.28;96065.59;5045982;28;20226;-75
2023/07/10 04:30:52;;;;;;;9.43;5.32;;;;;;;25.92;47.43;96055.06;5040453;28;20188;-74
2023/07/10 04:33:18;;;;;;;5.93;5.00;;;;;;;25.65;48.16;96055.47;5046864;28;20186;-77
2023/07/10 04:35:51;;;;;;;9.82;5.45;;;;;;;25.59;48.32;96061.69;5042217;28;20753;-76
2023/07/10 04:38:17;;;;;;;5.25;4.63;;;;;;;25.59;48.16;96047.59;5034810;28;20266;-76
2023/07/10 04:41:06;;;;;;;8.35;5.78;;;;;;;25.48;48.79;96065.16;5035529;28;20614;-75
2023/07/10 04:43:32;;;;;;;6.65;4.88;;;;;;;25.40;49.38;96073.47;5039801;28;20212;-75
2023/07/10 04:46:03;;;;;;;9.48;5.07;;;;;;;25.43;49.54;96068.50;5046597;28;20578;-76
2023/07/10 04:48:29;;;;;;;7.47;5.10;;;;;;;25.46;49.34;96074.41;5047380;28;20214;-76
2023/07/10 04:50:58;;;;;;;7.13;5.30;;;;;;;25.74;48.91;96073.78;5036050;28;20189;-76
2023/07/10 04:53:23;;;;;;;8.27;5.13;;;;;;;26.04;48.92;96086.97;5030768;28;20190;-75
2023/07/10 04:55:51;;;;;;;7.82;5.38;;;;;;;27.24;46.19;96095.13;5037576;28;20312;-76
2023/07/10 04:58:16;;;;;;;9.05;4.60;;;;;;;29.01;41.97;96106.09;5029904;28;20192;-76
2023/07/10 05:00:42;;;;;;;8.38;4.80;;;;;;;29.91;40.01;96117.94;5017575;28;20558;-77
2023/07/10 05:03:07;;;;;;;10.02;5.05;;;;;;;31.69;36.61;96126.88;5043348;28;20197;-76
2023/07/10 05:05:33;;;;;;;9.60;4.57;;;;;;;32.34;35.19;96122.63;5051228;28;20286;-77
2023/07/10 05:07:59;;;;;;;7.10;4.70;;;;;;;32.60;33.93;96147.56;5047498;28;20625;-76
2023/07/10 05:10:24;;;;;;;5.63;4.18;;;;;;;32.85;34.14;96145.91;5039072;28;20193;-77
2023/07/10 05:12:50;;;;;;;8.15;4.38;;;;;;;31.32;36.46;96137.00;5036602;28;20551;-77
2023/07/10 05:15:15;;;;;;;8.30;4.25;;;;;;;32.19;35.26;96140.63;5041919;28;20220;-76
2023/07/10 05:17:41;;;;;;;7.40;4.57;;;;;;;31.70;35.73;96133.84;5050193;28;20253;-76
2023/07/10 05:20:08;;;;;;;7.78;4.53;;;;;;;31.29;36.27;96133.78;5036003;28;20187;-78
2023/07/10 05:22:35;;;;;;;7.32;4.80;;;;;;;30.83;37.45;96126.59;5046826;28;20197;-78
2023/07/10 05:25:00;;;;;;;7.32;5.28;;;;;;;31.25;36.97;96121.16;5049123;28;20218;-79
2023/07/10 05:27:25;;;;;;;9.10;5.07;;;;;;;32.54;34.88;96118.28;5041996;28;20296;-79
2023/07/10 05:29:51;;;;;;;7.13;4.80;;;;;;;32.37;34.43;96115.91;5049283;28;20627;-79
2023/07/10 05:32:16;;;;;;;5.85;5.10;;;;;;;31.51;36.50;96122.00;5033279;28;20288;-79
2023/07/10 05:34:41;;;;;;;8.32;4.75;;;;;;;32.37;34.82;96123.94;5043082;28;20194;-79
2023/07/10 05:37:07;;;;;;;6.05;4.22;;;;;;;32.35;35.30;96118.84;5019655;28;20213;-80
2023/07/10 05:39:32;;;;;;;7.22;4.70;;;;;;;33.20;33.12;96108.06;5039268;28;20470;-80
2023/07/10 05:41:58;;;;;;;6.63;4.35;;;;;;;34.13;32.04;96130.66;5050435;28;20340;-79
2023/07/10 05:44:23;;;;;;;8.82;4.90;;;;;;;34.48;31.30;96117.94;5044189;28;20572;-80
2023/07/10 05:46:48;;;;;;;30.70;5.63;;;;;;;34.57;30.54;96110.84;5050842;28;20241;-78
2023/07/10 05:49:14;;;;;;;7.57;5.05;;;;;;;33.05;32.90;96126.19;5032800;28;20222;-77
2023/07/10 05:51:39;;;;;;;5.18;4.65;;;;;;;30.90;37.25;96113.75;5037963;28;20189;-79
2023/07/10 05:54:05;;;;;;;5.70;4.90;;;;;;;30.18;39.01;96115.22;5043201;28;20227;-79
2023/07/10 05:56:30;;;;;;;5.72;5.00;;;;;;;29.11;41.17;96126.78;5034644;28;20201;-80
2023/07/10 05:58:55;;;;;;;6.72;4.90;;;;;;;29.02;41.42;96143.25;5047501;28;20194;-79
2023/07/10 06:01:21;;;;;;;5.07;4.28;;;;;;;28.00;44.17;96157.00;5039193;28;20254;-78
2023/07/10 06:03:46;;;;;;;5.13;4.40;;;;;;;27.76;44.43;96163.53;5048126;28;20186;-78
2023/07/10 06:06:11;;;;;;;10.55;5.13;;;;;;;26.99;46.33;96171.91;5044134;28;20210;-79
2023/07/10 06:08:37;;;;;;;9.07;5.20;;;;;;;26.84;47.22;96167.06;5037133;28;20214;-79
2023/07/10 06:11:04;;;;;;;8.00;4.55;;;;;;;26.90;47.22;96178.63;5022748;28;20194;-78
2023/07/10 06:13:30;;;;;;;6.07;5.07;;;;;;;26.63;48.21;96171.16;5041315;28;20198;-78
2023/07/10 06:15:57;;;;;;;5.53;4.97;;;;;;;27.53;46.48;96161.75;5036049;28;20201;-79
2023/07/10 06:18:24;;;;;;;7.03;4.85;;;;;;;29.36;42.34;96153.81;5044017;28;20178;-79
2023/07/10 06:20:54;;;;;;;10.40;5.03;;;;;;;29.46;42.57;96156.59;5047183;28;20185;-77
2023/07/10 06:23:20;;;;;;;5.65;4.20;;;;;;;30.81;39.28;96164.41;5038879;28;20193;-78
2023/07/10 06:25:46;;;;;;;4.65;3.80;;;;;;;31.92;37.23;96165.88;5043474;28;20691;-78
2023/07/10 06:28:12;;;;;;;7.50;4.60;;;;;;;31.18;38.92;96158.91;5049757;28;20215;-79
2023/07/10 06:30:42;;;;;;;8.10;4.45;;;;;;;30.58;39.56;96149.53;5047101;28;20182;-79
2023/07/10 06:33:07;;;;;;;5.47;4.57;;;;;;;32.27;36.90;96153.50;5042336;28;20201;-80
2023/07/10 06:35:33;;;;;;;6.88;4.60;;;;;;;32.78;35.80;96150.72;5041929;28;20206;-79
2023/07/10 06:37:58;;;;;;;6.97;3.92;;;;;;;33.72;34.13;96151.66;5045584;28;20216;-80
2023/07/10 06:40:23;;;;;;;6.00;4.75;;;;;;;33.61;34.23;96140.16;5048165;28;20249;-80
2023/07/10 06:42:49;;;;;;;5.97;4.32;;;;;;;33.93;33.78;96139.72;5049777;28;20559;-80
2023/07/10 06:45:14;;;;;;;5.97;4.60;;;;;;;33.80;34.02;96151.88;5048342;28;20206;-80
2023/07/10 06:47:41;;;;;;;7.65;4.50;;;;;;;33.89;33.74;96146.72;5033262;28;20575;-79
2023/07/10 06:50:08;;;;;;;6.18;4.25;;;;;;;33.69;34.20;96141.47;5034077;28;20235;-79
2023/07/10 06:52:38;;;;;;;10.02;5.00;;;;;;;33.39;33.99;96137.88;5048188;28;20194;-80
2023/07/10 06:55:03;;;;;;;8.40;4.50;;;;;;;33.97;33.16;96142.63;5040253;28;20213;-79
2023/07/10 06:57:29;;;;;;;5.70;4.25;;;;;;;33.78;33.78;96140.59;5048430;28;20201;-78
2023/07/10 06:59:54;;;;;;;6.68;4.60;;;;;;;34.12;33.65;96145.22;5044009;28;20257;-81
2023/07/10 07:02:19;;;;;;;7.18;4.30;;;;;;;34.33;32.77;96148.50;5029714;28;20273;-80
2023/07/10 07:04:45;;;;;;;6.50;4.60;;;;;;;34.70;32.46;96160.59;5043290;28;20193;-80
2023/07/10 07:07:10;;;;;;;5.68;4.70;;;;;;;34.71;32.67;96157.59;5046593;28;20210;-80
2023/07/10 07:09:35;;;;;;;6.65;4.38;;;;;;;34.51;33.03;96169.41;5050263;28;20273;-80
2023/07/10 07:12:01;;;;;;;4.97;4.53;;;;;;;34.35;32.89;96170.59;5046380;28;20239;-80
2023/07/10 07:14:26;;;;;;;5.28;4.78;;;;;;;34.15;33.38;96173.47;5031889;28;20186;-79
2023/07/10 07:16:53;;;;;;;5.10;4.25;;;;;;;34.06;33.51;96176.78;5042231;28;20210;-80
2023/07/10 07:19:18;;;;;;;6.10;4.75;;;;;;;34.31;33.36;96185.75;5038739;28;20421;-79
2023/07/10 07:21:44;;;;;;;5.25;4.63;;;;;;;34.41;33.49;96191.06;5058627;28;20260;-79
2023/07/10 07:24:09;;;;;;;5.75;5.13;;;;;;;34.58;33.30;96194.16;5041992;28;20563;-80
2023/07/10 07:26:35;;;;;;;7.45;4.88;;;;;;;34.70;33.11;96190.25;5042472;28;20226;-79
2023/07/10 07:29:01;;;;;;;5.28;4.57;;;;;;;34.76;32.97;96194.50;5039783;28;20182;-80
2023/07/10 07:31:26;;;;;;;8.40;5.35;;;;;;;34.72;33.62;96205.09;5050917;28;20268;-79
2023/07/10 07:33:51;;;;;;;7.10;4.78;;;;;;;34.76;33.27;96208.81;5025020;28;20213;-81
2023/07/10 07:36:17;;;;;;;6.90;4.82;;;;;;;34.98;33.10;96211.00;5043302;28;20209;-79
2023/07/10 07:38:42;;;;;;;9.10;4.45;;;;;;;35.12;33.01;96203.84;5043880;28;20178;-81
2023/07/10 07:41:08;;;;;;;5.63;5.03;;;;;;;34.98;33.18;96211.00;5032712;28;20190;-80
2023/07/10 07:43:34;;;;;;;8.23;5.40;;;;;;;34.69;33.40;96218.31;5040945;28;20190;-79
2023/07/10 07:45:59;;;;;;;6.18;5.20;;;;;;;34.99;33.00;96214.53;5035885;28;20745;-80
2023/07/10 07:48:25;;;;;;;8.10;4.88;;;;;;;34.42;34.40;96218.84;5045929;28;20271;-81
2023/07/10 07:50:59;;;;;;;5.63;5.03;;;;;;;34.73;33.74;96227.47;5035194;28;20194;-80
2023/07/10 07:53:25;;;;;;;7.65;5.03;;;;;;;34.75;33.56;96236.06;5048172;28;20201;-80
2023/07/10 07:55:51;;;;;;;7.55;4.68;;;;;;;34.08;34.18;96217.72;5050425;28;20224;-80
2023/07/10 07:58:16;;;;;;;7.40;5.25;;;;;;;32.76;36.58;96220.91;5031084;28;20727;-80
2023/07/10 08:00:42;;;;;;;8.15;5.30;;;;;;;33.00;36.36;96215.78;5049801;28;20664;-80
2023/07/10 08:03:11;;;;;;;6.10;5.47;;;;;;;33.64;35.75;96216.91;5039604;28;20658;-79
2023/07/10 08:05:57;;;;;;;6.00;5.05;;;;;;;33.51;35.75;96221.00;5031899;23;20230;-80
2023/07/10 08:08:34;;;;;;;7.68;5.40;;;;;;;33.27;36.05;96214.63;5005399;28;20256;-81
2023/07/10 08:11:43;;;;;;;7.60;5.18;;;;;;;32.86;37.05;96212.84;5002556;28;20184;-81
2023/07/10 08:17:24;;;;;;;7.07;5.70;;;;;;;32.09;39.06;96205.91;5018373;23;20994;-81
2023/07/10 08:19:50;;;;;;;7.15;5.35;;;;;;;31.57;39.38;96212.22;5029152;28;20473;-79
2023/07/10 08:22:15;;;;;;;7.53;5.00;;;;;;;32.46;38.71;96205.66;5029397;28;20181;-79
2023/07/10 08:24:40;;;;;;;8.77;5.40;;;;;;;32.53;38.29;96203.50;5023040;28;20208;-79
2023/07/10 08:27:06;;;;;;;6.22;5.60;;;;;;;31.94;39.56;96203.19;5027980;28;20202;-77
2023/07/10 08:29:34;;;;;;;8.60;5.55;;;;;;;32.26;39.29;96206.44;5027075;28;20202;-77
2023/07/10 08:32:00;;;;;;;6.88;4.95;;;;;;;32.86;37.71;96204.78;5010361;28;20304;-77
2023/07/10 08:34:28;;;;;;;8.27;5.70;;;;;;;32.64;38.61;96215.03;5029252;28;20190;-78
2023/07/10 08:36:53;;;;;;;7.68;5.93;;;;;;;32.44;38.92;96207.81;5028364;28;20234;-77
2023/07/10 08:39:21;;;;;;;10.52;5.97;;;;;;;32.33;39.30;96203.50;5026683;28;20210;-77
2023/07/10 08:42:00;;;;;;;9.13;6.20;;;;;;;31.64;40.78;96215.47;5027643;28;20240;-77
2023/07/10 08:44:37;;;;;;;6.43;5.80;;;;;;;31.90;41.06;96212.88;5026965;28;20556;-77
2023/07/10 08:47:10;;;;;;;8.07;5.70;;;;;;;32.11;39.56;96219.88;5028617;28;20221;-77
2023/07/10 08:49:42;;;;;;;10.02;5.93;;;;;;;31.56;41.24;96216.78;5009212;28;20194;-77
2023/07/10 08:52:11;;;;;;;16.98;6.00;;;;;;;31.44;41.08;96213.50;5026220;28;20206;-77
2023/07/10 08:54:37;;;;;;;6.82;5.57;;;;;;;31.67;40.97;96223.00;5007013;28;20174;-77
2023/07/10 08:57:26;;;;;;;6.82;6.03;;;;;;;31.51;41.19;96222.13;5027274;28;20217;-77
2023/07/10 09:00:04;;;;;;;8.73;5.68;;;;;;;31.71;40.06;96218.69;5023074;28;20270;-77
2023/07/10 09:02:42;;;;;;;9.07;6.10;;;;;;;31.45;39.92;96227.72;5029488;28;20212;-77
2023/07/10 09:05:39;;;;;;;7.18;4.97;;;;;;;31.67;39.51;96222.19;5027376;28;20190;-77
2023/07/10 09:08:10;;;;;;;8.93;5.47;;;;;;;31.80;39.45;96222.50;4987666;28;20255;-77
2023/07/10 09:10:42;;;;;;;6.82;5.82;;;;;;;32.00;38.51;96221.75;4971244;28;20757;-77
2023/07/10 09:13:13;;;;;;;8.85;5.45;;;;;;;32.07;38.52;96224.97;4985098;28;20203;-77
2023/07/10 09:15:46;;;;;;;7.75;5.63;;;;;;;31.61;39.65;96217.84;4965214;28;20199;-77
2023/07/10 09:18:18;;;;;;;7.97;5.15;;;;;;;31.35;40.20;96220.47;4968729;28;20391;-77
2023/07/10 09:20:45;;;;;;;8.38;6.22;;;;;;;31.05;40.59;96223.00;4972085;28;20238;-77
2023/07/10 09:23:31;;;;;;;8.02;5.68;;;;;;;31.31;40.30;96223.94;4968921;28;20654;-82
2023/07/10 09:26:04;;;;;;;7.90;5.63;;;;;;;31.54;39.44;96218.09;4955157;28;20211;-81
2023/07/10 09:28:29;;;;;;;6.03;4.95;;;;;;;31.51;39.57;96224.81;4971067;28;20626;-81
2023/07/10 09:31:03;;;;;;;6.10;5.55;;;;;;;30.58;40.67;96216.53;4971749;28;20200;-81
2023/07/10 09:33:42;;;;;;;7.07;5.53;;;;;;;31.10;39.43;96215.78;4980807;28;20639;-81
2023/07/10 09:36:33;;;;;;;7.05;6.07;;;;;;;30.97;40.01;96218.91;4968370;28;20677;-82
2023/07/10 09:39:00;;;;;;;8.13;5.53;;;;;;;30.95;40.19;96216.50;4966370;28;20188;-81
2023/07/10 09:41:27;;;;;;;8.27;6.22;;;;;;;30.82;40.34;96218.81;4969466;28;20222;-81
2023/07/10 09:44:02;;;;;;;6.40;5.25;;;;;;;31.63;39.54;96219.22;4965470;28;20206;-82
2023/07/10 09:46:28;;;;;;;6.43;5.80;;;;;;;31.61;38.77;96215.97;5029079;28;20293;-80
2023/07/10 09:48:56;;;;;;;6.68;5.60;;;;;;;30.87;39.79;96203.59;5029621;28;20202;-81
2023/07/10 09:51:22;;;;;;;6.50;5.82;;;;;;;31.06;39.43;96212.00;5030751;28;20210;-81
2023/07/10 09:53:52;;;;;;;7.85;5.90;;;;;;;30.87;40.72;96213.50;5030687;28;20197;-80
2023/07/10 09:56:38;;;;;;;7.95;5.72;;;;;;;31.02;39.61;96206.34;5029292;28;20226;-81
2023/07/10 09:59:21;;;;;;;8.05;5.70;;;;;;;30.86;39.05;96207.34;5031517;28;20212;-81
2023/07/10 10:01:51;;;;;;;8.32;5.97;;;;;;;30.62;40.56;96217.63;5013942;28;20198;-81
2023/07/10 10:04:29;;;;;;;7.45;6.00;;;;;;;31.06;39.84;96217.34;5045812;28;20183;-81
2023/07/10 10:06:57;;;;;;;6.78;5.55;;;;;;;30.88;39.62;96217.81;5013307;28;20245;-81
2023/07/10 10:09:25;;;;;;;8.88;5.70;;;;;;;31.25;38.56;96207.81;5031966;28;20201;-80
2023/07/10 10:11:52;;;;;;;6.88;5.82;;;;;;;31.92;37.68;96211.53;5032529;28;20256;-81
2023/07/10 10:14:49;;;;;;;6.40;5.30;;;;;;;31.96;37.30;96206.41;5013434;28;20191;-80
2023/07/10 10:17:16;;;;;;;7.90;5.93;;;;;;;31.52;37.66;96207.63;5019825;28;20206;-75
2023/07/10 10:19:44;;;;;;;6.03;5.40;;;;;;;31.06;38.00;96203.16;5031850;28;20564;-78
2023/07/10 10:22:14;;;;;;;11.40;6.10;;;;;;;30.82;39.67;96208.09;5031946;28;20596;-78
2023/07/10 10:24:42;;;;;;;5.78;5.25;;;;;;;31.09;39.20;96208.78;5031346;28;20186;-78
2023/07/10 10:27:19;;;;;;;6.28;5.60;;;;;;;30.80;38.98;96205.69;5015244;28;20596;-80
2023/07/10 10:30:20;;;;;;;9.40;5.20;;;;;;;31.22;38.66;96202.97;5034450;28;20209;-81
2023/07/10 10:32:48;;;;;;;5.85;5.10;;;;;;;30.86;38.77;96206.53;5020231;28;20191;-80
2023/07/10 10:35:48;;;;;;;7.68;5.97;;;;;;;31.16;38.15;96208.56;5031328;28;20265;-81
2023/07/10 10:38:23;;;;;;;8.00;5.75;;;;;;;31.33;38.06;96203.00;5021827;28;20185;-81
2023/07/10 10:40:58;;;;;;;6.38;5.72;;;;;;;31.44;38.07;96215.38;5033925;28;20185;-81
2023/07/10 10:43:33;;;;;;;8.52;5.60;;;;;;;31.65;36.94;96200.97;5033771;28;20186;-81
2023/07/10 10:46:01;;;;;;;9.65;5.95;;;;;;;31.77;36.44;96204.25;5031186;28;20220;-80
2023/07/10 10:48:29;;;;;;;7.88;6.20;;;;;;;32.14;36.16;96203.19;5034652;28;20260;-81
2023/07/10 10:50:58;;;;;;;10.32;5.47;;;;;;;31.84;34.92;96202.09;5034774;28;20245;-81
2023/07/10 10:53:58;;;;;;;6.15;5.13;;;;;;;31.72;35.80;96201.53;5034137;28;20917;-81
2023/07/10 10:56:38;;;;;;;9.23;5.80;;;;;;;32.30;34.42;96201.31;4999338;28;20220;-80
2023/07/10 10:59:28;;;;;;;8.68;5.50;;;;;;;31.65;35.10;96200.97;4986568;28;20245;-80
2023/07/10 11:02:22;;;;;;;10.40;5.38;;;;;;;31.25;34.63;96194.41;5003003;28;20182;-81
2023/07/10 11:04:54;;;;;;;7.45;5.07;;;;;;;31.58;35.22;96200.41;4977833;28;20249;-80
2023/07/10 11:07:21;;;;;;;5.78;5.13;;;;;;;31.38;36.28;96197.69;4994561;28;20254;-81
2023/07/10 11:09:52;;;;;;;7.72;5.50;;;;;;;31.13;36.02;96191.13;4995503;28;20531;-81
2023/07/10 11:12:21;;;;;;;9.05;5.50;;;;;;;31.60;35.37;96187.53;4989928;28;20192;-80
2023/07/10 11:14:46;;;;;;;7.80;5.38;;;;;;;31.73;34.28;96181.66;4992097;28;20277;-78
2023/07/10 11:17:12;;;;;;;7.75;5.50;;;;;;;31.71;34.77;96178.41;4987909;28;20900;-80
2023/07/10 11:19:38;;;;;;;5.68;5.15;;;;;;;32.43;34.30;96183.91;4988407;28;20585;-82
2023/07/10 11:22:37;;;;;;;7.40;5.82;;;;;;;32.17;34.25;96178.50;4990415;28;20347;-84
2023/07/10 11:25:03;;;;;;;7.20;5.18;;;;;;;32.35;33.06;96174.50;4997941;28;20725;-84
2023/07/10 11:27:33;;;;;;;5.90;5.35;;;;;;;32.44;31.91;96164.81;4983656;28;20291;-84
2023/07/10 11:30:08;;;;;;;6.43;5.03;;;;;;;32.19;31.28;96159.41;4982942;28;20704;-84
2023/07/10 11:32:36;;;;;;;5.40;4.90;;;;;;;32.37;31.18;96159.69;5002017;28;20193;-80
2023/07/10 11:35:17;;;;;;;6.00;5.40;;;;;;;32.03;31.33;96153.25;5009601;28;20254;-79
2023/07/10 11:38:02;;;;;;;8.00;5.70;;;;;;;31.95;31.96;96156.47;5007669;28;20550;-79
2023/07/10 11:40:28;;;;;;;7.60;4.32;;;;;;;32.09;31.63;96149.47;5025643;28;20202;-79
2023/07/10 11:43:24;;;;;;;7.60;4.85;;;;;;;32.29;30.75;96157.53;5030901;28;20742;-80
2023/07/10 11:45:52;;;;;;;5.30;4.80;;;;;;;32.21;30.19;96155.38;5029049;28;20209;-79